ADDS METAR Data INFO
IDs: Format: Raw Decoded Include TAF

Data at: 0505 UTC 23 May 2017

KCFD 230455Z AUTO 01005KT 10SM SCT007 18/18 A2993 RMK AO2 T01830183
KCFD 230435Z AUTO 04004KT 10SM SCT018 19/19 A2992 RMK AO2 T01870187
KCFD 230415Z AUTO 05006KT 10SM OVC020 19/19 A2992 RMK AO2 T01900190
KCFD 230355Z AUTO 03007KT 10SM OVC020 19/19 A2992 RMK AO2 T01930193
KCFD 230335Z AUTO 04006KT 10SM OVC020 20/20 A2992 RMK AO2 T01950195
KCFD 230315Z AUTO 02008KT 10SM OVC020 20/20 A2992 RMK AO2 T01970197
KCFD 230255Z AUTO 04005KT 10SM OVC020 20/20 A2991 RMK AO2 T02000197
KCFD 230235Z AUTO 04005KT 10SM OVC022 20/19 A2991 RMK AO2 T02020189
KCFD 230215Z AUTO 01006KT 10SM OVC022 21/19 A2992 RMK AO2 T02050187
KCFD 230155Z AUTO 10SM OVC022 21/19 A2991 RMK AO2 T02070185
KCFD 230135Z AUTO 01006KT 10SM OVC022 21/19 A2991 RMK AO2 T02070186
KCFD 230115Z AUTO 01006KT 10SM OVC022 21/19 A2991 RMK AO2 T02100187
KCFD 230055Z AUTO 01006KT 10SM OVC022 21/19 A2991 RMK AO2 T02120187
KCFD 230035Z AUTO 03005KT 10SM OVC022 22/19 A2991 RMK AO2 T02150187
KCFD 230015Z AUTO 04003KT 10SM OVC022 22/19 A2991 RMK AO2 T02160186
KCFD 222355Z AUTO 04004KT 10SM OVC022 22/19 A2991 RMK AO2 LTG DSNT N T02170185 10225 20196
KCFD 222335Z AUTO 08004KT 10SM OVC020 22/19 A2991 RMK AO2 T02180185
KCFD 222315Z AUTO 08004KT 10SM OVC020 22/19 A2992 RMK AO2 T02170187
KCFD 222255Z AUTO 11005KT 10SM OVC020 22/19 A2992 RMK AO2 T02180185
KCFD 222235Z AUTO 08005KT 10SM OVC018 22/19 A2992 RMK AO2 T02210185
KCFD 222215Z AUTO 05007KT 10SM OVC018 22/19 A2992 RMK AO2 T02220185
KCFD 222155Z AUTO 06007KT 10SM OVC016 22/19 A2993 RMK AO2 T02170186
KCFD 222135Z AUTO 07007KT 10SM OVC016 22/19 A2993 RMK AO2 T02200190
KCFD 222115Z AUTO 06008KT 10SM OVC018 22/19 A2994 RMK AO2 T02210192
KCFD 222055Z AUTO 04008KT 010V070 10SM OVC018 22/19 A2995 RMK AO2 T02230194
KCFD 222035Z AUTO 06010KT 10SM OVC014 22/19 A2996 RMK AO2 T02150193
KCFD 222015Z AUTO 05008KT 10SM OVC012 21/19 A2996 RMK AO2 T02120191
KCFD 221955Z AUTO 06007KT 10SM OVC012 21/19 A2997 RMK AO2 T02120194
KCFD 221935Z AUTO 03009KT 10SM OVC012 21/19 A2999 RMK AO2 T02120194
KCFD 221915Z AUTO 06008KT 10SM OVC012 21/19 A3000 RMK AO2 T02060194
KCFD 221855Z AUTO 04008KT 10SM OVC010 20/20 A3000 RMK AO2 T02040195
KCFD 221835Z AUTO 06009KT 10SM BKN008 OVC012 21/20 A3000 RMK AO2 T02080202
KCFD 221815Z AUTO 05008KT 10SM OVC007 20/20 A3001 RMK AO2 T01960196
KCFD 221755Z AUTO 04008KT 10SM OVC009 20/20 A3001 RMK AO2 60173 T01970197 10197 20161
KCFD 221735Z AUTO 03008G15KT 10SM OVC009 20/20 A3001 RMK AO2 LTG DSNT S T01950195
KCFD 221715Z AUTO 04008KT 10SM OVC007 19/19 A3002 RMK AO2 T01930193
KCFD 221655Z AUTO 05010KT 10SM OVC007 19/19 A3003 RMK AO2 P0001 T01870187
KCFD 221635Z AUTO 06009KT 10SM OVC007 19/19 A3003 RMK AO2 P0001 T01890189
KCFD 221615Z AUTO 06008KT 10SM RA OVC007 18/18 A3003 RMK AO2 P0001 T01820182
KCFD 221555Z AUTO 06007KT 7SM RA BKN007 BKN014 OVC023 18/18 A3003 RMK AO2 P0002 T01800180
KCFD 221535Z AUTO 06009KT 10SM DZ BKN009 OVC021 18/18 A3003 RMK AO2 P0001 T01790179
KCFD 221515Z AUTO 04008KT 10SM DZ OVC007 18/18 A3003 RMK AO2 T01750175
KCFD 221455Z AUTO 03008KT 10SM RA OVC005 17/17 A3003 RMK AO2 P0011 60170 T01740174
KCFD 221435Z AUTO 03008KT 10SM DZ OVC005 17/17 A3003 RMK AO2 P0010 T01700170
KCFD 221415Z AUTO 01008G14KT 4SM RA OVC005 17/17 A3003 RMK AO2 P0007 T01680168
KCFD 221355Z AUTO 01009KT 7SM RA OVC005 17/17 A3003 RMK AO2 P0047 T01660166
KCFD 221335Z AUTO 03009KT 2SM +RA OVC005 16/16 A3002 RMK AO2 P0041 T01630163
KCFD 221315Z AUTO 02012G21KT 2SM +RA OVC005 16/16 A3002 RMK AO2 P0020 T01610161
KCFD 221255Z AUTO 02013KT 1 3/4SM +RA OVC005 16/16 A3003 RMK AO2 P0111 T01610161
KCFD 221235Z AUTO 02010G16KT 1 1/4SM +RA BKN003 BKN016 OVC037 16/16 A3003 RMK AO2 LTG DSNT S P0080 T01620162
KCFD 221215Z AUTO 01013G19KT 2SM +RA SCT003 BKN024 OVC035 16/16 A3002 RMK AO2 LTG DSNT E P0025 T01620162
KCFD 221155Z AUTO 01014G20KT 1SM +RA OVC003 16/16 A3002 RMK AO2 P0159 60172 70173 T01610161 10182 20161
KCFD 221135Z AUTO 02008G15KT 2SM +RA OVC003 16/16 A3002 RMK AO2 LTG DSNT SE P0088 T01610161
KCFD 221115Z AUTO 02012G15KT 1 3/4SM +RA OVC005 16/16 A3001 RMK AO2 LTG DSNT W P0043 T01630163
KCFD 221055Z AUTO 36010G15KT 7SM -RA OVC010 17/17 A3001 RMK AO2 LTG DSNT S THRU NW P0013 T01670167
KCFD 221035Z AUTO 36008KT 10SM -DZ OVC010 17/17 A3002 RMK AO2 LTG DSNT W P0007 T01700170
KCFD 221015Z AUTO 01007KT 5SM RA OVC010 17/17 A3001 RMK AO2 LTG DSNT S AND W P0006 T01720172
KCFD 220955Z AUTO 02005KT 10SM VCTSRA OVC010 18/18 A3003 RMK AO2 LTG DSNT W T01750175
KCFD 220935Z AUTO 03004KT 10SM BKN010 OVC031 18/18 A3003 RMK AO2 LTG DSNT W T01770177
KCFD 220915Z AUTO 03005KT 10SM OVC010 18/18 A3003 RMK AO2 LTG DSNT S AND W T01770177
KCFD 220855Z AUTO 02006KT 10SM OVC014 18/18 A3003 RMK AO2 T01770177
KCFD 220835Z AUTO 01007KT 10SM OVC014 18/18 A3005 RMK AO2 T01790179
KCFD 220815Z AUTO 04005KT 10SM BKN018 BKN110 18/18 A3005 RMK AO2 T01780178
KCFD 220755Z AUTO 04005KT 10SM SCT034 SCT050 18/18 A3006 RMK AO2 T01780178
KCFD 220735Z AUTO 03006KT 10SM -DZ SCT025 OVC034 18/18 A3006 RMK AO2 T01800180
KCFD 220715Z AUTO 03005KT 10SM BKN027 OVC034 18/18 A3007 RMK AO2 T01810181
KCFD 220655Z AUTO 04009KT 10SM SCT025 OVC036 18/18 A3006 RMK AO2 T01810181
KCFD 220635Z AUTO 10SM BKN034 OVC044 18/18 A3007 RMK AO2 T01800180
KCFD 220615Z AUTO 04007KT 10SM OVC032 18/18 A3007 RMK AO2 T01770177
KCFD 220555Z AUTO 03007KT 10SM SCT015 OVC030 18/18 A3008 RMK AO2 60001 T01750175 10226 20175 402670175
KCFD 220535Z AUTO 36007KT 10SM OVC015 18/18 A3009 RMK AO2 T01760176
KCFD 220515Z AUTO 01008KT 10SM SCT015 BKN035 OVC050 18/18 A3009 RMK AO2 T01770177
KCFD 220455Z AUTO 36006KT 10SM BKN050 BKN065 18/18 A3011 RMK AO2 T01800175
KCFD 220435Z AUTO 01007KT 10SM BKN050 BKN065 18/18 A3010 RMK AO2 T01800178
KCFD 220415Z AUTO 36005KT 10SM OVC050 18/18 A3011 RMK AO2 LTG DSNT NE T01810181
KCFD 220355Z AUTO 35008KT 10SM BKN047 OVC055 18/18 A3010 RMK AO2 T01830183
KCFD 220335Z AUTO 34008KT 10SM SCT055 19/19 A3009 RMK AO2 LTG DSNT N T01850185
KCFD 220315Z AUTO 34007KT 10SM SCT060 19/19 A3007 RMK AO2 LTG DSNT N T01900190
KCFD 220255Z AUTO 30004KT 10SM SCT037 19/19 A3009 RMK AO2 LTG DSNT N THRU SE P0001 60001 T01920192
KCFD 220235Z AUTO 36007KT 10SM -DZ SCT038 SCT050 BKN110 19/19 A3006 RMK AO2 LTG DSNT SE AND NW P0001 T01920192
KCFD 220215Z AUTO 01011KT 10SM -RA SCT065 BKN085 BKN120 20/19 A3007 RMK AO2 LTG DSNT SE AND NW T02000186
KCFD 220155Z AUTO 33004KT 10SM -DZ SCT047 SCT065 OVC085 21/18 A3010 RMK AO2 LTG DSNT SE W AND NW T02080177
KCFD 220135Z AUTO 10SM -DZ BKN045 OVC060 21/18 A3009 RMK AO2 LTG DSNT W AND NW T02100177
KCFD 220115Z AUTO 03005KT 10SM SCT045 OVC060 22/17 A3008 RMK AO2 T02160171
KCFD 220055Z AUTO 10SM SCT043 22/17 A3008 RMK AO2 T02170173
KCFD 220035Z AUTO 03007KT 10SM CLR 22/17 A3005 RMK AO2 T02200172
KCFD 220015Z AUTO 04005KT 10SM CLR 22/18 A3003 RMK AO2 LTG DSNT SW AND W T02220176
KCFD 212355Z AUTO 02009KT 10SM SCT041 23/18 A3003 RMK AO2 T02260178 10267 20226
KCFD 212335Z AUTO 03006KT 10SM BKN039 23/18 A3002 RMK AO2 LTG DSNT N SE AND W T02300175
KCFD 212315Z AUTO 02008KT 10SM OVC035 24/18 A3003 RMK AO2 LTG DSNT SW T02360176
KCFD 212255Z AUTO 03006G15KT 10SM BKN031 24/18 A3003 RMK AO2 T02390179
KCFD 212235Z AUTO 02013G18KT 10SM SCT031 24/18 A3003 RMK AO2 LTG DSNT SE T02380175
KCFD 212215Z AUTO 02008KT 10SM VCTS SCT028 BKN120 25/18 A3004 RMK AO2 T02460177
KCFD 212155Z AUTO 03009KT 10SM OVC028 25/18 A3006 RMK AO2 T02450177
KCFD 212135Z AUTO 06008KT 10SM OVC028 24/18 A3007 RMK AO2 LTG DSNT SE AND W T02410177
KCFD 212115Z AUTO 05010KT 10SM BKN030 OVC039 25/18 A3007 RMK AO2 LTG DSNT SE T02480183
KCFD 212055Z AUTO 04009KT 10SM OVC030 25/18 A3006 RMK AO2 LTG DSNT S T02460181
KCFD 212035Z AUTO 05008KT 10SM BKN026 BKN033 OVC039 25/18 A3005 RMK AO2 T02540180
KCFD 212015Z AUTO 02013G16KT 10SM BKN026 OVC037 25/18 A3004 RMK AO2 T02520178
KCFD 211955Z AUTO 02013G17KT 10SM SCT024 SCT036 27/18 A3005 RMK AO2 T02660181
KCFD 211935Z AUTO 04014G20KT 10SM SCT026 26/18 A3004 RMK AO2 T02640181
KCFD 211915Z AUTO 04012G17KT 10SM BKN024 26/18 A3006 RMK AO2 LTG DSNT SE T02570178
KCFD 211855Z AUTO 05012G16KT 10SM OVC024 25/17 A3007 RMK AO2 LTG DSNT SW T02460172
KCFD 211835Z AUTO 03011KT 10SM OVC022 25/17 A3007 RMK AO2 T02460169
KCFD 211815Z AUTO 05013G16KT 10SM OVC022 24/16 A3008 RMK AO2 LTG DSNT NE T02350162
KCFD 211755Z AUTO 04011G15KT 10SM OVC024 23/16 A3010 RMK AO2 LTG DSNT NE T02300156 10230 20195
KCFD 211735Z AUTO 03013G16KT 10SM OVC024 23/15 A3011 RMK AO2 LTG DSNT NE AND SE T02270150
KCFD 211715Z AUTO 03012G15KT 10SM OVC024 21/14 A3012 RMK AO2 T02140144


Page loaded:  05:05 UTC  |   10:05 PM Pacific  |   11:05 PM Mountain  |   12:05 AM Central  |   01:05 AM Eastern

 

ADVISORIES

FORECASTS

FORECASTS

OBSERVATIONS

USER TOOLS

ABOUT US